createdAt,value
2018-03-19T00:00:05.790Z,-5.60
2018-03-19T00:01:08.893Z,-5.60
2018-03-19T00:02:05.339Z,-5.60
2018-03-19T00:03:09.487Z,-5.60
2018-03-19T00:04:10.908Z,-5.60
2018-03-19T00:05:05.478Z,-5.60
2018-03-19T00:06:05.150Z,-5.60
2018-03-19T00:07:06.075Z,-5.60
2018-03-19T00:08:05.601Z,-5.60
2018-03-19T00:09:10.432Z,-5.60
2018-03-19T00:10:05.868Z,-5.70
2018-03-19T00:11:05.549Z,-5.60
2018-03-19T00:12:08.586Z,-5.60
2018-03-19T00:13:06.162Z,-5.70
2018-03-19T00:14:09.114Z,-5.60
2018-03-19T00:15:13.279Z,-5.70
2018-03-19T00:16:05.837Z,-5.70
2018-03-19T00:17:05.528Z,-5.60
2018-03-19T00:18:07.985Z,-5.70
2018-03-19T00:19:05.513Z,-5.70
2018-03-19T00:20:07.907Z,-5.70
2018-03-19T00:21:10.339Z,-5.70
2018-03-19T00:22:05.805Z,-5.70
2018-03-19T00:23:05.681Z,-5.70
2018-03-19T00:24:05.654Z,-5.70
2018-03-19T00:25:05.276Z,-5.70
2018-03-19T00:26:05.422Z,-5.70
2018-03-19T00:27:05.935Z,-5.70
2018-03-19T00:28:07.816Z,-5.70
2018-03-19T00:29:05.607Z,-5.70
2018-03-19T00:30:08.309Z,-5.70
2018-03-19T00:31:08.706Z,-5.70
2018-03-19T00:32:07.717Z,-5.70
2018-03-19T00:33:08.869Z,-5.70
2018-03-19T00:34:05.639Z,-5.70
2018-03-19T00:35:05.557Z,-5.70
2018-03-19T00:36:06.218Z,-5.80
2018-03-19T00:37:08.090Z,-5.80
2018-03-19T00:38:05.420Z,-5.80
2018-03-19T00:39:05.744Z,-5.80
2018-03-19T00:40:08.035Z,-5.80
2018-03-19T00:41:10.414Z,-5.80
2018-03-19T00:42:13.645Z,-5.80
2018-03-19T00:43:06.033Z,-5.80
2018-03-19T00:44:08.212Z,-5.80
2018-03-19T00:45:09.080Z,-5.80
2018-03-19T00:46:08.056Z,-5.80
2018-03-19T00:47:05.607Z,-5.90
2018-03-19T00:48:05.579Z,-5.80
2018-03-19T00:49:05.418Z,-5.80
2018-03-19T00:50:05.401Z,-5.80
2018-03-19T00:51:05.896Z,-5.80
2018-03-19T00:52:06.153Z,-5.90
2018-03-19T00:53:05.333Z,-5.80
2018-03-19T00:54:05.318Z,-5.80
2018-03-19T00:55:05.580Z,-5.80
2018-03-19T00:56:10.317Z,-5.90
2018-03-19T00:57:10.499Z,-5.90
2018-03-19T00:58:05.366Z,-5.90
2018-03-19T00:59:11.135Z,-5.90
2018-03-19T01:00:05.507Z,-5.90
2018-03-19T01:01:08.381Z,-5.90
2018-03-19T01:02:08.428Z,-5.90
2018-03-19T01:03:05.867Z,-5.90
2018-03-19T01:04:05.199Z,-5.90
2018-03-19T01:05:11.037Z,-5.90
2018-03-19T01:06:09.208Z,-5.90
2018-03-19T01:07:05.715Z,-5.90
2018-03-19T01:08:05.924Z,-5.90
2018-03-19T01:09:10.462Z,-6.00
2018-03-19T01:10:06.500Z,-6.00
2018-03-19T01:11:05.837Z,-6.00
2018-03-19T01:12:05.369Z,-6.00
2018-03-19T01:13:06.136Z,-6.00
2018-03-19T01:14:05.908Z,-6.00
2018-03-19T01:15:05.861Z,-6.00
2018-03-19T01:16:08.742Z,-6.00
2018-03-19T01:17:05.273Z,-6.00
2018-03-19T01:18:07.774Z,-6.00
2018-03-19T01:19:05.179Z,-6.00
2018-03-19T01:20:05.236Z,-6.00
2018-03-19T01:21:06.189Z,-6.00
2018-03-19T01:22:06.341Z,-6.00
2018-03-19T01:23:05.791Z,-6.00
2018-03-19T01:24:05.913Z,-6.10
2018-03-19T01:25:05.653Z,-6.10
2018-03-19T01:26:11.203Z,-6.10
2018-03-19T01:27:05.572Z,-6.10
2018-03-19T01:28:05.921Z,-6.10
2018-03-19T01:29:05.871Z,-6.10
2018-03-19T01:30:05.585Z,-6.10
2018-03-19T01:31:05.234Z,-6.10
2018-03-19T01:32:07.715Z,-6.10
2018-03-19T01:33:08.314Z,-6.10
2018-03-19T01:34:10.098Z,-6.10
2018-03-19T01:35:10.850Z,-6.10
2018-03-19T01:36:05.286Z,-6.10
2018-03-19T01:37:07.238Z,-6.20
2018-03-19T01:38:11.041Z,-6.20
2018-03-19T01:39:05.173Z,-6.20
2018-03-19T01:40:06.323Z,-6.10
2018-03-19T01:41:11.092Z,-6.20
2018-03-19T01:42:05.185Z,-6.20
2018-03-19T01:43:05.795Z,-6.20
2018-03-19T01:44:10.599Z,-6.20
2018-03-19T01:45:05.805Z,-6.20
2018-03-19T01:46:06.151Z,-6.20
2018-03-19T01:47:09.657Z,-6.20
2018-03-19T01:48:07.840Z,-6.30
2018-03-19T01:49:05.237Z,-6.20
2018-03-19T01:50:05.876Z,-6.20
2018-03-19T01:51:05.365Z,-6.20
2018-03-19T01:52:05.997Z,-6.30
2018-03-19T01:53:09.308Z,-6.30
2018-03-19T01:54:08.606Z,-6.30
2018-03-19T01:55:06.086Z,-6.30
2018-03-19T01:56:05.780Z,-6.30
2018-03-19T01:57:05.904Z,-6.30
2018-03-19T01:58:05.448Z,-6.30
2018-03-19T01:59:05.756Z,-6.30
2018-03-19T02:00:05.318Z,-6.30
2018-03-19T02:01:08.257Z,-6.30
2018-03-19T02:02:05.626Z,-6.30
2018-03-19T02:03:10.342Z,-6.30
2018-03-19T02:04:08.037Z,-6.30
2018-03-19T02:05:05.390Z,-6.30
2018-03-19T02:06:07.876Z,-6.30
2018-03-19T02:07:05.291Z,-6.30
2018-03-19T02:08:05.358Z,-6.30
2018-03-19T02:09:08.232Z,-6.30
2018-03-19T02:10:10.744Z,-6.30
2018-03-19T02:11:06.133Z,-6.30
2018-03-19T02:12:06.142Z,-6.30
2018-03-19T02:13:05.654Z,-6.40
2018-03-19T02:14:05.690Z,-6.40
2018-03-19T02:15:05.590Z,-6.40
2018-03-19T02:16:10.640Z,-6.40
2018-03-19T02:17:05.875Z,-6.40
2018-03-19T02:18:05.580Z,-6.40
2018-03-19T02:19:11.324Z,-6.40
2018-03-19T02:20:05.874Z,-6.40
2018-03-19T02:21:05.499Z,-6.40
2018-03-19T02:22:13.430Z,-6.40
2018-03-19T02:23:05.936Z,-6.40
2018-03-19T02:24:05.896Z,-6.40
2018-03-19T02:25:07.812Z,-6.50
2018-03-19T02:26:10.282Z,-6.40
2018-03-19T02:27:08.247Z,-6.40
2018-03-19T02:28:05.668Z,-6.50
2018-03-19T02:29:05.404Z,-6.40
2018-03-19T02:30:05.736Z,-6.40
2018-03-19T02:31:05.391Z,-6.50
2018-03-19T02:32:07.965Z,-6.50
2018-03-19T02:33:05.564Z,-6.50
2018-03-19T02:34:10.343Z,-6.50
2018-03-19T02:35:05.489Z,-6.50
2018-03-19T02:36:05.251Z,-6.50
2018-03-19T02:37:06.764Z,-6.50
2018-03-19T02:38:06.225Z,-6.50
2018-03-19T02:39:06.169Z,-6.50
2018-03-19T02:40:05.436Z,-6.50
2018-03-19T02:41:06.181Z,-6.50
2018-03-19T02:42:05.881Z,-6.50
2018-03-19T02:43:11.070Z,-6.50
2018-03-19T02:44:05.681Z,-6.60
2018-03-19T02:45:10.672Z,-6.60
2018-03-19T02:46:08.490Z,-6.60
2018-03-19T02:47:08.667Z,-6.60
2018-03-19T02:48:05.276Z,-6.50
2018-03-19T02:49:06.009Z,-6.50
2018-03-19T02:50:10.740Z,-6.50
2018-03-19T02:51:05.093Z,-6.60
2018-03-19T02:52:07.841Z,-6.60
2018-03-19T02:53:08.674Z,-6.60
2018-03-19T02:54:05.465Z,-6.60
2018-03-19T02:55:10.520Z,-6.60
2018-03-19T02:56:08.622Z,-6.60
2018-03-19T02:57:06.110Z,-6.60
2018-03-19T02:58:10.971Z,-6.60
2018-03-19T02:59:05.303Z,-6.60
2018-03-19T03:00:11.283Z,-6.60
2018-03-19T03:01:05.800Z,-6.60
2018-03-19T03:02:05.830Z,-6.60
2018-03-19T03:03:10.723Z,-6.60
2018-03-19T03:04:06.131Z,-6.60
2018-03-19T03:05:11.803Z,-6.70
2018-03-19T03:06:05.254Z,-6.70
2018-03-19T03:07:08.146Z,-6.70
2018-03-19T03:08:08.932Z,-6.70
2018-03-19T03:09:05.626Z,-6.70
2018-03-19T03:10:10.521Z,-6.70
2018-03-19T03:11:07.886Z,-6.70
2018-03-19T03:12:05.298Z,-6.70
2018-03-19T03:13:05.465Z,-6.70
2018-03-19T03:14:10.238Z,-6.70
2018-03-19T03:15:05.176Z,-6.70
2018-03-19T03:16:08.905Z,-6.70
2018-03-19T03:17:05.632Z,-6.70
2018-03-19T03:18:10.592Z,-6.70
2018-03-19T03:19:11.113Z,-6.80
2018-03-19T03:20:08.047Z,-6.70
2018-03-19T03:21:10.511Z,-6.80
2018-03-19T03:22:05.708Z,-6.80
2018-03-19T03:23:05.910Z,-6.80
2018-03-19T03:24:05.961Z,-6.80
2018-03-19T03:25:11.264Z,-6.80
2018-03-19T03:26:10.611Z,-6.80
2018-03-19T03:27:05.625Z,-6.80
2018-03-19T03:28:10.934Z,-6.80
2018-03-19T03:29:05.783Z,-6.80
2018-03-19T03:30:05.616Z,-6.80
2018-03-19T03:31:06.023Z,-6.80
2018-03-19T03:32:06.101Z,-6.80
2018-03-19T03:33:08.321Z,-6.90
2018-03-19T03:34:10.821Z,-6.90
2018-03-19T03:35:11.245Z,-6.90
2018-03-19T03:36:09.031Z,-6.90
2018-03-19T03:37:09.499Z,-6.90
2018-03-19T03:38:11.010Z,-6.90
2018-03-19T03:39:08.656Z,-6.90
2018-03-19T03:40:06.395Z,-6.90
2018-03-19T03:41:05.991Z,-6.90
2018-03-19T03:42:06.149Z,-6.90
2018-03-19T03:43:10.871Z,-7.00
2018-03-19T03:44:05.885Z,-7.00
2018-03-19T03:45:05.411Z,-7.00
2018-03-19T03:46:06.111Z,-7.00
2018-03-19T03:47:05.855Z,-7.00
2018-03-19T03:48:05.531Z,-7.00
2018-03-19T03:49:08.392Z,-7.00
2018-03-19T03:50:05.836Z,-7.00
2018-03-19T03:51:05.263Z,-7.00
2018-03-19T03:52:05.637Z,-7.00
2018-03-19T03:53:05.480Z,-7.10
2018-03-19T03:54:11.072Z,-7.00
2018-03-19T03:55:08.699Z,-7.10
2018-03-19T03:56:05.192Z,-7.10
2018-03-19T03:57:13.327Z,-7.10
2018-03-19T03:58:05.981Z,-7.00
2018-03-19T03:59:06.068Z,-7.10
2018-03-19T04:00:10.282Z,-7.00
2018-03-19T04:01:09.934Z,-7.10
2018-03-19T04:02:05.350Z,-7.10
2018-03-19T04:03:10.210Z,-7.10
2018-03-19T04:04:05.589Z,-7.10
2018-03-19T04:05:08.450Z,-7.10
2018-03-19T04:06:08.884Z,-7.10
2018-03-19T04:07:05.474Z,-7.20
2018-03-19T04:08:05.323Z,-7.10
2018-03-19T04:09:11.166Z,-7.20
2018-03-19T04:10:05.597Z,-7.20
2018-03-19T04:11:11.225Z,-7.20
2018-03-19T04:12:05.880Z,-7.20
2018-03-19T04:13:05.329Z,-7.20
2018-03-19T04:14:05.992Z,-7.20
2018-03-19T04:15:08.699Z,-7.20
2018-03-19T04:16:08.590Z,-7.20
2018-03-19T04:17:06.106Z,-7.20
2018-03-19T04:18:08.442Z,-7.20
2018-03-19T04:19:11.097Z,-7.20
2018-03-19T04:20:05.368Z,-7.30
2018-03-19T04:21:06.042Z,-7.20
2018-03-19T04:22:05.793Z,-7.30
2018-03-19T04:23:05.529Z,-7.30
2018-03-19T04:24:08.454Z,-7.30
2018-03-19T04:25:09.477Z,-7.30
2018-03-19T04:26:11.013Z,-7.40
2018-03-19T04:27:08.566Z,-7.30
2018-03-19T04:28:09.415Z,-7.30
2018-03-19T04:29:09.358Z,-7.40
2018-03-19T04:30:10.735Z,-7.30
2018-03-19T04:31:05.823Z,-7.40
2018-03-19T04:32:05.639Z,-7.40
2018-03-19T04:33:05.210Z,-7.40
2018-03-19T04:34:05.560Z,-7.40
2018-03-19T04:35:05.631Z,-7.40
2018-03-19T04:36:08.129Z,-7.40
2018-03-19T04:37:05.670Z,-7.50
2018-03-19T04:38:05.235Z,-7.40
2018-03-19T04:39:05.467Z,-7.40
2018-03-19T04:40:05.858Z,-7.40
2018-03-19T04:41:10.518Z,-7.50
2018-03-19T04:42:05.251Z,-7.50
2018-03-19T04:43:05.615Z,-7.50
2018-03-19T04:44:06.064Z,-7.50
2018-03-19T04:45:05.507Z,-7.50
2018-03-19T04:46:05.319Z,-7.50
2018-03-19T04:47:10.310Z,-7.50
2018-03-19T04:48:05.626Z,-7.50
2018-03-19T04:49:05.797Z,-7.50
2018-03-19T04:50:06.217Z,-7.50
2018-03-19T04:51:06.033Z,-7.50
2018-03-19T04:52:09.349Z,-7.60
2018-03-19T04:53:05.723Z,-7.50
2018-03-19T04:54:05.814Z,-7.60
2018-03-19T04:55:05.672Z,-7.50
2018-03-19T04:56:05.688Z,-7.60
2018-03-19T04:57:07.969Z,-7.60
2018-03-19T04:58:05.336Z,-7.60
2018-03-19T04:59:10.136Z,-7.60
2018-03-19T05:00:05.276Z,-7.60
2018-03-19T05:01:10.891Z,-7.70
2018-03-19T05:02:09.083Z,-7.60
2018-03-19T05:03:05.841Z,-7.70
2018-03-19T05:04:05.758Z,-7.70
2018-03-19T05:05:05.312Z,-7.70
2018-03-19T05:06:06.275Z,-7.70
2018-03-19T05:07:05.497Z,-7.70
2018-03-19T05:08:06.390Z,-7.70
2018-03-19T05:09:06.015Z,-7.70
2018-03-19T05:10:05.821Z,-7.70
2018-03-19T05:11:05.508Z,-7.70
2018-03-19T05:12:08.708Z,-7.70
2018-03-19T05:13:08.012Z,-7.70
2018-03-19T05:14:05.648Z,-7.80
2018-03-19T05:15:07.880Z,-7.70
2018-03-19T05:16:10.728Z,-7.70
2018-03-19T05:17:05.255Z,-7.80
2018-03-19T05:18:08.854Z,-7.80
2018-03-19T05:19:05.567Z,-7.80
2018-03-19T05:20:08.551Z,-7.70
2018-03-19T05:21:09.986Z,-7.70
2018-03-19T05:22:05.491Z,-7.70
2018-03-19T05:23:06.173Z,-7.70
2018-03-19T05:24:10.995Z,-7.70
2018-03-19T05:25:07.207Z,-7.70
2018-03-19T05:26:05.642Z,-7.70
2018-03-19T05:27:05.516Z,-7.70
2018-03-19T05:28:05.885Z,-7.70
2018-03-19T05:29:05.749Z,-7.70
2018-03-19T05:30:05.535Z,-7.70
2018-03-19T05:31:09.059Z,-7.70
2018-03-19T05:32:05.573Z,-7.70
2018-03-19T05:33:05.386Z,-7.70
2018-03-19T05:34:05.610Z,-7.70
2018-03-19T05:35:05.592Z,-7.70
2018-03-19T05:36:08.625Z,-7.70
2018-03-19T05:37:06.101Z,-7.70
2018-03-19T05:38:06.205Z,-7.70
2018-03-19T05:39:05.642Z,-7.60
2018-03-19T05:40:06.408Z,-7.60
2018-03-19T05:41:05.599Z,-7.60
2018-03-19T05:42:05.310Z,-7.60
2018-03-19T05:43:05.804Z,-7.60
2018-03-19T05:44:05.294Z,-7.60
2018-03-19T05:45:08.194Z,-7.60
2018-03-19T05:46:05.715Z,-7.60
2018-03-19T05:47:05.667Z,-7.60
2018-03-19T05:48:05.988Z,-7.60
2018-03-19T05:49:06.108Z,-7.60
2018-03-19T05:50:05.749Z,-7.60
2018-03-19T05:51:05.768Z,-7.50
2018-03-19T05:52:05.518Z,-7.50
2018-03-19T05:53:12.695Z,-7.50
2018-03-19T05:54:06.161Z,-7.50
2018-03-19T05:55:09.366Z,-7.30
2018-03-19T05:56:06.067Z,-7.30
2018-03-19T05:57:05.514Z,-7.20
2018-03-19T05:58:06.121Z,-7.00
2018-03-19T05:59:08.456Z,-6.70
2018-03-19T06:00:08.392Z,-6.60
2018-03-19T06:01:09.582Z,-6.40
2018-03-19T06:02:06.207Z,-6.40
2018-03-19T06:03:08.529Z,-6.10
2018-03-19T06:04:10.996Z,-6.00
2018-03-19T06:05:05.559Z,-5.90
2018-03-19T06:06:05.653Z,-5.80
2018-03-19T06:07:09.158Z,-5.50
2018-03-19T06:08:05.663Z,-5.50
2018-03-19T06:09:05.917Z,-5.40
2018-03-19T06:10:05.779Z,-5.30
2018-03-19T06:11:05.345Z,-5.20
2018-03-19T06:12:05.977Z,-5.10
2018-03-19T06:13:07.959Z,-4.90
2018-03-19T06:14:05.562Z,-4.90
2018-03-19T06:15:05.268Z,-4.80
2018-03-19T06:16:08.269Z,-4.60
2018-03-19T06:17:05.752Z,-4.60
2018-03-19T06:18:08.860Z,-4.40
2018-03-19T06:19:10.363Z,-4.40
2018-03-19T06:20:08.206Z,-4.30
2018-03-19T06:21:05.667Z,-4.30
2018-03-19T06:22:08.478Z,-4.20
2018-03-19T06:23:11.890Z,-4.30
2018-03-19T06:24:05.304Z,-4.20
2018-03-19T06:25:10.850Z,-4.20
2018-03-19T06:26:05.372Z,-4.20
2018-03-19T06:27:06.036Z,-4.20
2018-03-19T06:28:05.844Z,-4.20
2018-03-19T06:29:05.903Z,-4.10
2018-03-19T06:30:05.738Z,-4.10
2018-03-19T06:31:05.349Z,-4.00
2018-03-19T06:32:08.666Z,-4.00
2018-03-19T06:33:06.027Z,-4.00
2018-03-19T06:34:05.613Z,-4.00
2018-03-19T06:35:05.220Z,-3.90
2018-03-19T06:36:05.979Z,-3.90
2018-03-19T06:37:08.139Z,-3.90
2018-03-19T06:38:11.313Z,-3.90
2018-03-19T06:39:17.002Z,-3.80
2018-03-19T06:40:05.533Z,-3.80
2018-03-19T06:41:06.195Z,-3.80
2018-03-19T06:42:05.714Z,-3.70
2018-03-19T06:43:05.700Z,-3.60
2018-03-19T06:44:05.242Z,-3.60
2018-03-19T06:45:05.172Z,-3.50
2018-03-19T06:46:08.276Z,-3.50
2018-03-19T06:47:05.791Z,-3.50
2018-03-19T06:48:05.718Z,-3.50
2018-03-19T06:49:05.836Z,-3.50
2018-03-19T06:50:08.562Z,-3.40
2018-03-19T06:51:06.122Z,-3.40
2018-03-19T06:52:05.832Z,-3.40
2018-03-19T06:53:05.647Z,-3.40
2018-03-19T06:54:05.704Z,-3.30
2018-03-19T06:55:05.851Z,-3.30
2018-03-19T06:56:05.563Z,-3.30
2018-03-19T06:57:05.411Z,-3.20
2018-03-19T06:58:08.511Z,-3.20
2018-03-19T06:59:10.893Z,-3.20
2018-03-19T07:00:13.460Z,-3.20
2018-03-19T07:01:08.420Z,-3.20
2018-03-19T07:02:05.912Z,-3.20
2018-03-19T07:03:06.092Z,-3.20
2018-03-19T07:04:05.166Z,-3.20
2018-03-19T07:05:08.233Z,-3.10
2018-03-19T07:06:05.393Z,-3.10
2018-03-19T07:07:08.465Z,-3.00
2018-03-19T07:08:05.817Z,-3.00
2018-03-19T07:09:10.487Z,-2.90
2018-03-19T07:10:07.993Z,-3.00
2018-03-19T07:11:10.486Z,-2.90
2018-03-19T07:12:05.322Z,-3.00
2018-03-19T07:13:05.632Z,-2.90
2018-03-19T07:14:06.112Z,-3.00
2018-03-19T07:15:11.774Z,-2.90
2018-03-19T07:16:05.239Z,-2.90
2018-03-19T07:17:08.300Z,-2.90
2018-03-19T07:18:05.788Z,-2.90
2018-03-19T07:19:05.665Z,-2.90
2018-03-19T07:20:05.571Z,-3.00
2018-03-19T07:21:10.216Z,-3.00
2018-03-19T07:22:05.483Z,-3.00
2018-03-19T07:23:05.567Z,-2.90
2018-03-19T07:24:09.644Z,-2.90
2018-03-19T07:25:05.317Z,-2.90
2018-03-19T07:26:05.928Z,-2.90
2018-03-19T07:27:06.141Z,-2.90
2018-03-19T07:28:08.915Z,-2.80
2018-03-19T07:29:05.604Z,-2.80
2018-03-19T07:30:10.708Z,-2.80
2018-03-19T07:31:06.675Z,-2.80
2018-03-19T07:32:05.561Z,-2.70
2018-03-19T07:33:05.335Z,-2.70
2018-03-19T07:34:07.818Z,-2.70
2018-03-19T07:35:05.243Z,-2.70
2018-03-19T07:36:06.075Z,-2.70
2018-03-19T07:37:05.230Z,-2.70
2018-03-19T07:38:05.411Z,-2.70
2018-03-19T07:39:08.265Z,-2.70
2018-03-19T07:40:05.870Z,-2.70
2018-03-19T07:41:05.979Z,-2.70
2018-03-19T07:42:10.748Z,-2.70
2018-03-19T07:43:11.160Z,-2.70
2018-03-19T07:44:05.697Z,-2.70
2018-03-19T07:45:05.313Z,-2.60
2018-03-19T07:46:05.197Z,-2.70
2018-03-19T07:47:05.612Z,-2.60
2018-03-19T07:48:08.821Z,-2.60
2018-03-19T07:49:05.238Z,-2.60
2018-03-19T07:50:06.094Z,-2.60
2018-03-19T07:51:05.772Z,-2.70
2018-03-19T07:52:07.951Z,-2.60
2018-03-19T07:53:09.922Z,-2.60
2018-03-19T07:54:08.014Z,-2.70
2018-03-19T07:55:08.015Z,-2.70
2018-03-19T07:56:06.003Z,-2.70
2018-03-19T07:57:06.160Z,-2.70
2018-03-19T07:58:06.228Z,-2.60
2018-03-19T07:59:05.493Z,-2.60
2018-03-19T08:00:05.936Z,-2.60
2018-03-19T08:01:08.234Z,-2.60
2018-03-19T08:02:05.767Z,-2.50
2018-03-19T08:03:10.760Z,-2.50
2018-03-19T08:04:06.159Z,-2.50
2018-03-19T08:05:09.117Z,-2.40
2018-03-19T08:06:05.708Z,-2.40
2018-03-19T08:07:08.624Z,-2.40
2018-03-19T08:08:06.072Z,-2.40
2018-03-19T08:09:06.005Z,-2.40
2018-03-19T08:10:08.578Z,-2.40
2018-03-19T08:11:05.965Z,-2.40
2018-03-19T08:12:10.623Z,-2.40
2018-03-19T08:13:09.172Z,-2.40
2018-03-19T08:14:09.149Z,-2.40
2018-03-19T08:15:05.762Z,-2.40
2018-03-19T08:16:05.248Z,-2.40
2018-03-19T08:17:05.591Z,-2.40
2018-03-19T08:18:05.592Z,-2.40
2018-03-19T08:19:09.518Z,-2.40
2018-03-19T08:20:05.997Z,-2.40
2018-03-19T08:21:05.577Z,-2.40
2018-03-19T08:22:09.463Z,-2.40
2018-03-19T08:23:05.911Z,-2.40
2018-03-19T08:24:06.060Z,-2.40
2018-03-19T08:25:05.626Z,-2.40
2018-03-19T08:26:05.870Z,-2.40
2018-03-19T08:27:05.198Z,-2.40
2018-03-19T08:28:05.878Z,-2.40
2018-03-19T08:29:07.811Z,-2.30
2018-03-19T08:30:05.974Z,-2.30
2018-03-19T08:31:10.480Z,-2.30
2018-03-19T08:32:05.806Z,-2.40
2018-03-19T08:33:05.407Z,-2.40
2018-03-19T08:34:06.039Z,-2.40
2018-03-19T08:35:05.672Z,-2.30
2018-03-19T08:36:05.398Z,-2.30
2018-03-19T08:37:05.887Z,-2.30
2018-03-19T08:38:05.899Z,-2.30
2018-03-19T08:39:05.774Z,-2.20
2018-03-19T08:40:08.666Z,-2.20
2018-03-19T08:41:09.633Z,-2.10
2018-03-19T08:42:05.395Z,-2.10
2018-03-19T08:43:05.820Z,-2.10
2018-03-19T08:44:05.959Z,-2.10
2018-03-19T08:45:09.086Z,-2.10
2018-03-19T08:46:08.053Z,-2.10
2018-03-19T08:47:05.454Z,-2.00
2018-03-19T08:48:05.148Z,-2.00
2018-03-19T08:49:06.512Z,-2.00
2018-03-19T08:50:06.100Z,-2.00
2018-03-19T08:51:05.628Z,-2.00
2018-03-19T08:52:13.711Z,-2.00
2018-03-19T08:53:05.209Z,-2.00
2018-03-19T08:54:12.960Z,-2.10
2018-03-19T08:55:07.850Z,-2.10
2018-03-19T08:56:10.911Z,-2.10
2018-03-19T08:57:07.913Z,-2.10
2018-03-19T08:58:05.382Z,-2.10
2018-03-19T08:59:10.246Z,-2.20
2018-03-19T09:00:06.191Z,-2.10
2018-03-19T09:01:05.819Z,-2.20
2018-03-19T09:02:08.097Z,-2.10
2018-03-19T09:03:05.601Z,-2.10
2018-03-19T09:04:10.453Z,-2.10
2018-03-19T09:05:05.760Z,-2.10
2018-03-19T09:06:05.723Z,-2.10
2018-03-19T09:07:06.284Z,-2.20
2018-03-19T09:08:05.898Z,-2.10
2018-03-19T09:09:05.650Z,-2.20
2018-03-19T09:10:11.165Z,-2.20
2018-03-19T09:11:05.489Z,-2.20
2018-03-19T09:12:06.030Z,-2.30
2018-03-19T09:13:05.722Z,-2.30
2018-03-19T09:14:05.951Z,-2.30
2018-03-19T09:15:05.264Z,-2.40
2018-03-19T09:16:05.371Z,-2.40
2018-03-19T09:17:05.282Z,-2.30
2018-03-19T09:18:05.152Z,-2.30
2018-03-19T09:19:05.735Z,-2.30
2018-03-19T09:20:05.904Z,-2.30
2018-03-19T09:21:06.073Z,-2.30
2018-03-19T09:22:05.666Z,-2.30
2018-03-19T09:23:05.741Z,-2.30
2018-03-19T09:24:11.515Z,-2.30
2018-03-19T09:25:05.703Z,-2.30
2018-03-19T09:26:05.182Z,-2.30
2018-03-19T09:27:10.883Z,-2.30
2018-03-19T09:28:05.642Z,-2.20
2018-03-19T09:29:05.344Z,-2.20
2018-03-19T09:30:06.434Z,-2.20
2018-03-19T09:31:06.161Z,-2.10
2018-03-19T09:32:06.084Z,-2.10
2018-03-19T09:33:05.789Z,-2.10
2018-03-19T09:34:09.294Z,-2.00
2018-03-19T09:35:05.233Z,-2.00
2018-03-19T09:36:06.190Z,-2.00
2018-03-19T09:37:08.432Z,-2.00
2018-03-19T09:38:05.771Z,-2.10
2018-03-19T09:39:05.770Z,-2.00
2018-03-19T09:40:05.399Z,-2.00
2018-03-19T09:41:05.225Z,-2.00
2018-03-19T09:42:07.750Z,-2.00
2018-03-19T09:43:05.418Z,-2.00
2018-03-19T09:44:06.286Z,-2.00
2018-03-19T09:45:05.665Z,-2.00
2018-03-19T09:46:05.484Z,-1.90
2018-03-19T09:47:05.627Z,-1.90
2018-03-19T09:48:05.243Z,-1.90
2018-03-19T09:49:07.913Z,-1.90
2018-03-19T09:50:05.355Z,-1.90
2018-03-19T09:51:09.425Z,-1.90
2018-03-19T09:52:06.198Z,-1.90
2018-03-19T09:53:06.011Z,-1.90
2018-03-19T09:54:05.856Z,-1.80
2018-03-19T09:55:08.964Z,-1.80
2018-03-19T09:56:07.928Z,-1.90
2018-03-19T09:57:05.477Z,-1.90
2018-03-19T09:58:05.390Z,-1.80
2018-03-19T09:59:05.401Z,-1.90
2018-03-19T10:00:05.215Z,-1.90
2018-03-19T10:01:05.425Z,-1.90
2018-03-19T10:02:05.704Z,-1.90
2018-03-19T10:03:10.455Z,-1.90
2018-03-19T10:04:06.220Z,-1.90
2018-03-19T10:05:06.126Z,-1.90
2018-03-19T10:06:05.654Z,-1.90
2018-03-19T10:07:05.884Z,-1.90
2018-03-19T10:08:05.804Z,-1.80
2018-03-19T10:09:05.213Z,-1.90
2018-03-19T10:10:05.924Z,-1.90
2018-03-19T10:11:05.563Z,-1.80
2018-03-19T10:12:05.973Z,-1.80
2018-03-19T10:13:08.581Z,-1.80
2018-03-19T10:14:05.978Z,-1.80
2018-03-19T10:15:08.176Z,-1.80
2018-03-19T10:16:05.591Z,-1.80
2018-03-19T10:17:05.288Z,-1.80
2018-03-19T10:18:06.074Z,-1.80
2018-03-19T10:19:05.770Z,-1.80
2018-03-19T10:20:08.195Z,-1.70
2018-03-19T10:21:05.709Z,-1.70
2018-03-19T10:22:07.920Z,-1.60
2018-03-19T10:23:05.331Z,-1.60
2018-03-19T10:24:05.878Z,-1.60
2018-03-19T10:25:13.155Z,-1.50
2018-03-19T10:26:05.753Z,-1.40
2018-03-19T10:27:10.666Z,-1.40
2018-03-19T10:28:08.502Z,-1.40
2018-03-19T10:29:06.204Z,-1.40
2018-03-19T10:30:13.418Z,-1.40
2018-03-19T10:31:05.815Z,-1.40
2018-03-19T10:32:05.577Z,-1.50
2018-03-19T10:33:05.630Z,-1.40
2018-03-19T10:34:08.972Z,-1.50
2018-03-19T10:35:05.988Z,-1.50
2018-03-19T10:36:08.153Z,-1.60
2018-03-19T10:37:05.527Z,-1.60
2018-03-19T10:38:08.542Z,-1.60
2018-03-19T10:39:06.114Z,-1.60
2018-03-19T10:40:11.117Z,-1.60
2018-03-19T10:41:05.451Z,-1.60
2018-03-19T10:42:06.103Z,-1.60
2018-03-19T10:43:05.540Z,-1.60
2018-03-19T10:44:09.083Z,-1.60
2018-03-19T10:45:05.620Z,-0.00
2018-03-19T10:46:07.867Z,-1.50
2018-03-19T10:47:08.466Z,-1.50
2018-03-19T10:48:11.024Z,-1.60
2018-03-19T10:49:07.802Z,-1.50
2018-03-19T10:50:05.268Z,-1.60
2018-03-19T10:51:05.773Z,-1.50
2018-03-19T10:52:10.615Z,-1.50
2018-03-19T10:53:10.779Z,-1.50
2018-03-19T10:54:05.235Z,-1.40
2018-03-19T10:55:06.054Z,-1.50
2018-03-19T10:56:10.747Z,-1.40
2018-03-19T10:57:06.023Z,-1.40
2018-03-19T10:58:10.873Z,-1.40
2018-03-19T10:59:08.981Z,-1.40
2018-03-19T11:00:05.472Z,-1.40
2018-03-19T11:01:05.232Z,-1.40
2018-03-19T11:02:05.917Z,-1.40
2018-03-19T11:03:05.538Z,-1.40
2018-03-19T11:04:07.904Z,-1.40
2018-03-19T11:05:05.375Z,-1.40
2018-03-19T11:06:06.106Z,-1.30
2018-03-19T11:07:06.181Z,-1.30
2018-03-19T11:08:11.173Z,-1.20
2018-03-19T11:09:06.120Z,-1.30
2018-03-19T11:10:10.646Z,-1.30
2018-03-19T11:11:09.446Z,-1.20
2018-03-19T11:12:06.060Z,-1.20
2018-03-19T11:13:10.955Z,-1.20
2018-03-19T11:14:05.292Z,-1.10
2018-03-19T11:15:05.483Z,-1.20
2018-03-19T11:16:05.299Z,-1.20
2018-03-19T11:17:10.568Z,-1.20
2018-03-19T11:18:05.950Z,-1.30
2018-03-19T11:19:05.535Z,-1.20
2018-03-19T11:20:08.662Z,-1.30
2018-03-19T11:21:06.018Z,-1.30
2018-03-19T11:22:11.064Z,-1.30
2018-03-19T11:23:05.552Z,-1.30
2018-03-19T11:24:05.241Z,-1.30
2018-03-19T11:25:05.562Z,-1.20
2018-03-19T11:26:05.268Z,-1.20
2018-03-19T11:27:05.918Z,-1.20
2018-03-19T11:28:05.562Z,-1.20
2018-03-19T11:29:06.212Z,-1.30
2018-03-19T11:30:05.998Z,-1.30
2018-03-19T11:31:08.090Z,-1.30
2018-03-19T11:32:05.574Z,-1.30
2018-03-19T11:33:05.368Z,-1.30
2018-03-19T11:34:05.668Z,-1.30
2018-03-19T11:35:13.194Z,-1.30
2018-03-19T11:36:08.446Z,-1.30
2018-03-19T11:37:05.857Z,-1.30
2018-03-19T11:38:09.252Z,-1.30
2018-03-19T11:39:05.581Z,-1.30
2018-03-19T11:40:05.262Z,-1.30
2018-03-19T11:41:05.364Z,-1.30
2018-03-19T11:42:05.197Z,-1.30
2018-03-19T11:43:06.200Z,-1.30
2018-03-19T11:44:08.435Z,-1.30
2018-03-19T11:45:05.938Z,-1.30
2018-03-19T11:46:13.306Z,-1.20
2018-03-19T11:47:05.704Z,-1.20
2018-03-19T11:48:05.375Z,-1.20
2018-03-19T11:49:10.462Z,-1.20
2018-03-19T11:50:08.573Z,-1.20
2018-03-19T11:51:11.025Z,-1.30
2018-03-19T11:52:11.083Z,-1.30
2018-03-19T11:53:05.095Z,-1.20
2018-03-19T11:54:10.981Z,-1.30
2018-03-19T11:55:10.484Z,-1.30
2018-03-19T11:56:08.528Z,-1.20
2018-03-19T11:57:05.950Z,-1.30
2018-03-19T11:58:06.091Z,-1.30
2018-03-19T11:59:09.174Z,-1.30
2018-03-19T12:00:08.309Z,-1.30
2018-03-19T12:01:05.758Z,-1.30
2018-03-19T12:02:05.797Z,-1.30
2018-03-19T12:03:05.871Z,-1.30
2018-03-19T12:04:06.126Z,-1.30
2018-03-19T12:05:06.143Z,-1.40
2018-03-19T12:06:05.687Z,-1.30
2018-03-19T12:07:05.399Z,-1.30
2018-03-19T12:08:06.038Z,-1.30
2018-03-19T12:09:05.841Z,-1.30
2018-03-19T12:10:13.019Z,-1.20
2018-03-19T12:11:08.787Z,-1.20
2018-03-19T12:12:05.408Z,-1.20
2018-03-19T12:13:06.035Z,-1.10
2018-03-19T12:14:05.874Z,-1.10
2018-03-19T12:15:05.807Z,-1.10
2018-03-19T12:16:05.380Z,-1.10
2018-03-19T12:17:05.729Z,-1.00
2018-03-19T12:18:07.866Z,-1.00
2018-03-19T12:19:05.342Z,-1.00
2018-03-19T12:20:05.620Z,-1.00
2018-03-19T12:21:05.126Z,-1.10
2018-03-19T12:22:05.862Z,-1.00
2018-03-19T12:23:08.501Z,-1.00
2018-03-19T12:24:05.957Z,-1.00
2018-03-19T12:25:05.427Z,-1.00
2018-03-19T12:26:10.427Z,-1.00
2018-03-19T12:27:05.935Z,-1.00
2018-03-19T12:28:05.310Z,-1.10
2018-03-19T12:29:08.697Z,-1.00
2018-03-19T12:30:10.237Z,-1.10
2018-03-19T12:31:05.757Z,-1.10
2018-03-19T12:32:10.503Z,-1.10
2018-03-19T12:33:05.736Z,-1.10
2018-03-19T12:34:05.265Z,-1.10
2018-03-19T12:35:11.051Z,-1.10
2018-03-19T12:36:11.166Z,-1.10
2018-03-19T12:37:10.444Z,-1.20
2018-03-19T12:38:08.450Z,-1.20
2018-03-19T12:39:06.027Z,-1.10
2018-03-19T12:40:08.442Z,-1.10
2018-03-19T12:41:09.740Z,-1.10
2018-03-19T12:42:05.388Z,-1.10
2018-03-19T12:43:05.929Z,-1.10
2018-03-19T12:44:07.747Z,-1.10
2018-03-19T12:45:10.193Z,-1.10
2018-03-19T12:46:08.916Z,-1.10
2018-03-19T12:47:07.970Z,-1.10
2018-03-19T12:48:08.844Z,-1.10
2018-03-19T12:49:05.361Z,-1.10
2018-03-19T12:50:05.627Z,-1.20
2018-03-19T12:51:09.237Z,-1.20
2018-03-19T12:52:09.470Z,-1.20